This is the latest recevied weather packets stored in our database for station/object KQ4HEI. If no packets are shown the sender has not sent any weather packets the latest 10 day(s).
| Time | Temp. | Humidity | Pressure | Rain* | Wind** | Luminosity | Snow |
|---|---|---|---|---|---|---|---|
| 1777050692 | 28.89° C | 45% | 1012.5 hPa | 0 mm | - | - | - |
| 1777050092 | 28.89° C | 45% | 1012.6 hPa | 0 mm | - | - | - |
| 1777049492 | 28.89° C | 45% | 1012.7 hPa | 0 mm | - | - | - |
| 1777048892 | 29.44° C | 44% | 1012.8 hPa | 0 mm | - | - | - |
| 1777048292 | 28.89° C | 46% | 1013 hPa | 0 mm | - | - | - |
| 1777047692 | 28.89° C | 45% | 1013.2 hPa | 0 mm | - | - | - |
| 1777047092 | 29.44° C | 43% | 1013.2 hPa | 0 mm | - | - | - |
| 1777046492 | 28.33° C | 46% | 1013.3 hPa | 0 mm | - | - | - |
| 1777045892 | 28.33° C | 49% | 1013.4 hPa | 0 mm | - | - | - |
| 1777045292 | 27.78° C | 49% | 1013.4 hPa | 0 mm | - | - | - |
| 1777044692 | 26.67° C | 53% | 1013.3 hPa | 0 mm | - | - | - |
| 1777044092 | 28.33° C | 48% | 1013.3 hPa | 0 mm | - | - | - |
| 1777043492 | 27.22° C | 52% | 1013.5 hPa | 0 mm | - | - | - |
| 1777042892 | 27.22° C | 52% | 1013.3 hPa | 0 mm | - | - | - |
| 1777042292 | 27.22° C | 51% | 1013.3 hPa | 0 mm | - | - | - |
| 1777041692 | 26.11° C | 52% | 1013.3 hPa | 0 mm | - | - | - |
| 1777041092 | 27.22° C | 51% | 1013.2 hPa | 0 mm | - | - | - |
| 1777040492 | 27.22° C | 52% | 1013.2 hPa | 0 mm | - | - | - |
| 1777039892 | 26.11° C | 54% | 1013.3 hPa | 0 mm | - | - | - |
| 1777039292 | 25.56° C | 61% | 1013.3 hPa | 0 mm | - | - | - |
| 1777038692 | 24.44° C | 67% | 1013.3 hPa | 0 mm | - | - | - |
| 1777038092 | 23.89° C | 69% | 1013.3 hPa | 0 mm | - | - | - |
| 1777037492 | 22.78° C | 72% | 1013.4 hPa | 0 mm | - | - | - |
| 1777036892 | 21.67° C | 76% | 1013.2 hPa | 0 mm | - | - | - |
| 1777036292 | 20° C | 81% | 1013.1 hPa | 0 mm | - | - | - |
* Rain latest hour (hover to see other rain measurements)
** Current wind speed in m/s (hover to see current wind gust speed)